KSAT/SAT METAR and TAF weather

Enter ICAO airport designator
Station Type Date Time Source
KSAT METAR 2018/07/16 23:51 UTC NOAA

KSAT 162351Z 14016KT 10SM CLR 34/17 A2997 RMK AO2 SLP129 T03440167 10361 20328 56015


Station Type Date Time Source
KSAT Decoded METAR 2018/07/16 23:51 UTC NOAA

SAN ANTONIO INTERNATIONAL AIRPORT , TX, United States (KSAT) 29-32N 098-28W 243M
Jul 16, 2018 - 07:51 PM EDT / 2018.07.16 2351 UTC
Wind: from the SE (140 degrees) at 18 MPH (16 KT):0
Visibility: 10 mile(s):0
Sky conditions: clear
Temperature: 93.9 F (34.4 C)
Heat index: 94.3 F (34.6 C):1
Dew Point: 62.1 F (16.7 C)
Relative Humidity: 34%
Pressure (altimeter): 29.97 in. Hg (1014 hPa)
Pressure tendency: 0.04 inches (1.5 hPa) lower than three hours ago
ob: KSAT 162351Z 14016KT 10SM CLR 34/17 A2997 RMK AO2 SLP129 T03440167 10361 20328 56015
cycle: 0

Station Type Date Time Source
KSAT TAF 2018/07/16 18:22 UTC NOAA

TAF KSAT 161720Z 1618/1724 17010KT P6SM FEW040
FM170900 18005KT P6SM SCT015
FM171600 17009KT P6SM FEW250


Example: see airport list